Forestville, New York
Current Conditions -  °F | °C
As of 7:53 PM on Friday 19 Dec 2014 (Local Time) from KDKK Reporting Station
Overcast Overcast  
Wind Chill: 22°   Ceiling: 2200
Heat Index: 28°   Visibility: 10mi
Dew Point: 21°   Wind: 6mph
Humidity: 75%   Direction: 210°SSW
Pressure: 30.26"   Gusts: NA
Location:  42.47°N, 79.18°W
Report Text: KDKK 200053Z AUTO 21005KT 10SM OVC022 M02/M06 A3026 RMK AO2 SLP256 T10221061 $
Loading
Personal Weather Stations






























Interactive Weather Map New forecast layout! Learn more

10-Day Weather Forecast

Advertisements
Track Severe Weather on mobile